sensor_id;sensor_type;location;lat;lon;timestamp;P1;durP1;ratioP1;P2;durP2;ratioP2
49237;SDS011;35069;47.906;1.892;2024-03-08T00:01:30;17.27;;;11.30;;
49237;SDS011;35069;47.906;1.892;2024-03-08T00:03:56;19.02;;;11.38;;
49237;SDS011;35069;47.906;1.892;2024-03-08T00:06:21;19.17;;;11.45;;
49237;SDS011;35069;47.906;1.892;2024-03-08T00:08:47;17.20;;;10.70;;
49237;SDS011;35069;47.906;1.892;2024-03-08T00:11:13;18.77;;;11.95;;
49237;SDS011;35069;47.906;1.892;2024-03-08T00:13:38;20.70;;;11.38;;
49237;SDS011;35069;47.906;1.892;2024-03-08T00:16:04;17.45;;;10.82;;
49237;SDS011;35069;47.906;1.892;2024-03-08T00:18:30;21.67;;;11.45;;
49237;SDS011;35069;47.906;1.892;2024-03-08T00:20:55;19.52;;;11.63;;
49237;SDS011;35069;47.906;1.892;2024-03-08T00:23:21;18.23;;;11.80;;
49237;SDS011;35069;47.906;1.892;2024-03-08T00:25:46;21.45;;;11.68;;
49237;SDS011;35069;47.906;1.892;2024-03-08T00:28:12;23.40;;;12.07;;
49237;SDS011;35069;47.906;1.892;2024-03-08T00:30:40;19.42;;;11.73;;
49237;SDS011;35069;47.906;1.892;2024-03-08T00:33:05;18.35;;;12.15;;
49237;SDS011;35069;47.906;1.892;2024-03-08T00:35:31;18.48;;;11.23;;
49237;SDS011;35069;47.906;1.892;2024-03-08T00:37:56;19.75;;;11.60;;
49237;SDS011;35069;47.906;1.892;2024-03-08T00:40:22;17.17;;;11.65;;
49237;SDS011;35069;47.906;1.892;2024-03-08T00:42:48;17.48;;;11.32;;
49237;SDS011;35069;47.906;1.892;2024-03-08T00:45:13;19.20;;;12.82;;
49237;SDS011;35069;47.906;1.892;2024-03-08T00:47:39;20.17;;;12.15;;
49237;SDS011;35069;47.906;1.892;2024-03-08T00:50:05;19.92;;;12.80;;
49237;SDS011;35069;47.906;1.892;2024-03-08T00:52:31;18.48;;;11.27;;
49237;SDS011;35069;47.906;1.892;2024-03-08T00:54:57;21.52;;;12.18;;
49237;SDS011;35069;47.906;1.892;2024-03-08T00:57:22;21.80;;;11.93;;
49237;SDS011;35069;47.906;1.892;2024-03-08T00:59:48;19.13;;;12.32;;
49237;SDS011;35069;47.906;1.892;2024-03-08T01:02:17;18.50;;;11.65;;
49237;SDS011;35069;47.906;1.892;2024-03-08T01:04:44;18.00;;;11.63;;
49237;SDS011;35069;47.906;1.892;2024-03-08T01:07:09;20.38;;;12.13;;
49237;SDS011;35069;47.906;1.892;2024-03-08T01:09:35;17.55;;;11.48;;
49237;SDS011;35069;47.906;1.892;2024-03-08T01:12:01;21.10;;;12.35;;
49237;SDS011;35069;47.906;1.892;2024-03-08T01:14:27;19.00;;;12.15;;
49237;SDS011;35069;47.906;1.892;2024-03-08T01:16:54;19.70;;;11.98;;
49237;SDS011;35069;47.906;1.892;2024-03-08T01:19:20;19.92;;;11.45;;
49237;SDS011;35069;47.906;1.892;2024-03-08T01:21:45;21.25;;;11.73;;
49237;SDS011;35069;47.906;1.892;2024-03-08T01:24:11;17.10;;;11.00;;
49237;SDS011;35069;47.906;1.892;2024-03-08T01:26:37;20.50;;;12.20;;
49237;SDS011;35069;47.906;1.892;2024-03-08T01:29:03;18.85;;;12.05;;
49237;SDS011;35069;47.906;1.892;2024-03-08T01:31:29;19.45;;;13.07;;
49237;SDS011;35069;47.906;1.892;2024-03-08T01:33:56;22.95;;;13.57;;
49237;SDS011;35069;47.906;1.892;2024-03-08T01:36:22;20.33;;;12.02;;
49237;SDS011;35069;47.906;1.892;2024-03-08T01:38:48;19.45;;;12.32;;
49237;SDS011;35069;47.906;1.892;2024-03-08T01:41:14;21.92;;;12.85;;
49237;SDS011;35069;47.906;1.892;2024-03-08T01:43:41;19.13;;;12.15;;
49237;SDS011;35069;47.906;1.892;2024-03-08T01:46:07;22.25;;;12.60;;
49237;SDS011;35069;47.906;1.892;2024-03-08T01:48:34;19.63;;;11.73;;
49237;SDS011;35069;47.906;1.892;2024-03-08T01:51:00;22.80;;;13.18;;
49237;SDS011;35069;47.906;1.892;2024-03-08T01:53:26;17.25;;;11.32;;
49237;SDS011;35069;47.906;1.892;2024-03-08T01:55:54;21.33;;;11.93;;
49237;SDS011;35069;47.906;1.892;2024-03-08T01:58:22;18.08;;;12.20;;
49237;SDS011;35069;47.906;1.892;2024-03-08T02:00:48;19.05;;;12.35;;
49237;SDS011;35069;47.906;1.892;2024-03-08T02:03:15;24.83;;;13.60;;
49237;SDS011;35069;47.906;1.892;2024-03-08T02:05:44;21.38;;;12.77;;
49237;SDS011;35069;47.906;1.892;2024-03-08T02:08:09;23.45;;;13.30;;
49237;SDS011;35069;47.906;1.892;2024-03-08T02:10:39;20.98;;;13.23;;
49237;SDS011;35069;47.906;1.892;2024-03-08T02:13:06;22.40;;;12.98;;
49237;SDS011;35069;47.906;1.892;2024-03-08T02:15:51;20.88;;;12.13;;
49237;SDS011;35069;47.906;1.892;2024-03-08T02:18:20;18.25;;;11.52;;
49237;SDS011;35069;47.906;1.892;2024-03-08T02:20:47;21.02;;;12.55;;
49237;SDS011;35069;47.906;1.892;2024-03-08T02:23:14;20.85;;;13.40;;
49237;SDS011;35069;47.906;1.892;2024-03-08T02:25:40;20.50;;;12.80;;
49237;SDS011;35069;47.906;1.892;2024-03-08T02:28:08;21.38;;;13.73;;
49237;SDS011;35069;47.906;1.892;2024-03-08T02:30:38;19.55;;;12.00;;
49237;SDS011;35069;47.906;1.892;2024-03-08T02:33:04;26.15;;;13.85;;
49237;SDS011;35069;47.906;1.892;2024-03-08T02:35:30;20.73;;;11.45;;
49237;SDS011;35069;47.906;1.892;2024-03-08T02:37:57;23.25;;;12.85;;
49237;SDS011;35069;47.906;1.892;2024-03-08T02:40:23;21.88;;;13.85;;
49237;SDS011;35069;47.906;1.892;2024-03-08T02:42:49;24.15;;;13.73;;
49237;SDS011;35069;47.906;1.892;2024-03-08T02:45:14;21.50;;;12.32;;
49237;SDS011;35069;47.906;1.892;2024-03-08T02:47:40;23.90;;;13.18;;
49237;SDS011;35069;47.906;1.892;2024-03-08T02:50:06;23.45;;;13.38;;
49237;SDS011;35069;47.906;1.892;2024-03-08T02:52:34;25.63;;;15.20;;
49237;SDS011;35069;47.906;1.892;2024-03-08T02:55:00;22.00;;;13.07;;
49237;SDS011;35069;47.906;1.892;2024-03-08T02:57:31;24.25;;;12.98;;
49237;SDS011;35069;47.906;1.892;2024-03-08T02:59:57;23.98;;;12.98;;
49237;SDS011;35069;47.906;1.892;2024-03-08T03:02:24;20.48;;;13.88;;
49237;SDS011;35069;47.906;1.892;2024-03-08T03:04:51;21.75;;;12.43;;
49237;SDS011;35069;47.906;1.892;2024-03-08T03:07:17;21.65;;;12.25;;
49237;SDS011;35069;47.906;1.892;2024-03-08T03:09:43;26.45;;;14.63;;
49237;SDS011;35069;47.906;1.892;2024-03-08T03:12:08;20.10;;;12.68;;
49237;SDS011;35069;47.906;1.892;2024-03-08T03:14:37;24.25;;;14.52;;
49237;SDS011;35069;47.906;1.892;2024-03-08T03:17:05;21.75;;;13.77;;
49237;SDS011;35069;47.906;1.892;2024-03-08T03:19:31;23.08;;;13.73;;
49237;SDS011;35069;47.906;1.892;2024-03-08T03:21:56;24.13;;;14.93;;
49237;SDS011;35069;47.906;1.892;2024-03-08T03:24:22;23.25;;;13.80;;
49237;SDS011;35069;47.906;1.892;2024-03-08T03:26:48;25.42;;;13.88;;
49237;SDS011;35069;47.906;1.892;2024-03-08T03:29:14;23.55;;;14.65;;
49237;SDS011;35069;47.906;1.892;2024-03-08T03:31:41;25.65;;;15.18;;
49237;SDS011;35069;47.906;1.892;2024-03-08T03:34:11;24.58;;;13.80;;
49237;SDS011;35069;47.906;1.892;2024-03-08T03:36:37;24.20;;;14.57;;
49237;SDS011;35069;47.906;1.892;2024-03-08T03:39:07;27.65;;;14.70;;
49237;SDS011;35069;47.906;1.892;2024-03-08T03:41:38;21.58;;;13.15;;
49237;SDS011;35069;47.906;1.892;2024-03-08T03:44:04;23.95;;;13.80;;
49237;SDS011;35069;47.906;1.892;2024-03-08T03:46:31;26.95;;;15.40;;
49237;SDS011;35069;47.906;1.892;2024-03-08T03:48:57;29.35;;;14.05;;
49237;SDS011;35069;47.906;1.892;2024-03-08T03:51:23;23.60;;;15.13;;
49237;SDS011;35069;47.906;1.892;2024-03-08T03:53:49;24.45;;;14.65;;
49237;SDS011;35069;47.906;1.892;2024-03-08T03:56:15;24.00;;;13.38;;
49237;SDS011;35069;47.906;1.892;2024-03-08T03:58:40;26.27;;;14.80;;
49237;SDS011;35069;47.906;1.892;2024-03-08T04:01:07;26.45;;;14.05;;
49237;SDS011;35069;47.906;1.892;2024-03-08T04:03:34;25.63;;;15.40;;
49237;SDS011;35069;47.906;1.892;2024-03-08T04:06:00;26.98;;;14.80;;
49237;SDS011;35069;47.906;1.892;2024-03-08T04:08:27;26.38;;;15.25;;
49237;SDS011;35069;47.906;1.892;2024-03-08T04:10:52;26.27;;;14.75;;
49237;SDS011;35069;47.906;1.892;2024-03-08T04:13:18;24.77;;;15.23;;
49237;SDS011;35069;47.906;1.892;2024-03-08T04:15:48;25.08;;;14.50;;
49237;SDS011;35069;47.906;1.892;2024-03-08T04:18:14;23.77;;;14.02;;
49237;SDS011;35069;47.906;1.892;2024-03-08T04:20:40;23.75;;;14.57;;
49237;SDS011;35069;47.906;1.892;2024-03-08T04:23:06;25.45;;;14.40;;
49237;SDS011;35069;47.906;1.892;2024-03-08T04:25:32;23.73;;;15.02;;
49237;SDS011;35069;47.906;1.892;2024-03-08T04:27:58;25.98;;;15.43;;
49237;SDS011;35069;47.906;1.892;2024-03-08T04:30:24;25.48;;;14.60;;
49237;SDS011;35069;47.906;1.892;2024-03-08T04:32:49;27.33;;;15.80;;
49237;SDS011;35069;47.906;1.892;2024-03-08T04:35:15;24.35;;;14.50;;
49237;SDS011;35069;47.906;1.892;2024-03-08T04:37:41;28.45;;;14.68;;
49237;SDS011;35069;47.906;1.892;2024-03-08T04:40:07;26.88;;;14.90;;
49237;SDS011;35069;47.906;1.892;2024-03-08T04:42:33;23.13;;;14.38;;
49237;SDS011;35069;47.906;1.892;2024-03-08T04:45:00;24.83;;;13.55;;
49237;SDS011;35069;47.906;1.892;2024-03-08T04:47:26;28.33;;;15.82;;
49237;SDS011;35069;47.906;1.892;2024-03-08T04:49:51;27.05;;;14.13;;
49237;SDS011;35069;47.906;1.892;2024-03-08T04:52:18;29.10;;;15.07;;
49237;SDS011;35069;47.906;1.892;2024-03-08T04:54:43;31.27;;;15.48;;
49237;SDS011;35069;47.906;1.892;2024-03-08T04:57:12;29.90;;;14.57;;
49237;SDS011;35069;47.906;1.892;2024-03-08T04:59:37;25.23;;;15.00;;
49237;SDS011;35069;47.906;1.892;2024-03-08T05:02:03;28.05;;;14.88;;
49237;SDS011;35069;47.906;1.892;2024-03-08T05:04:29;24.23;;;15.23;;
49237;SDS011;35069;47.906;1.892;2024-03-08T05:06:55;31.27;;;15.43;;
49237;SDS011;35069;47.906;1.892;2024-03-08T05:09:20;26.95;;;14.98;;
49237;SDS011;35069;47.906;1.892;2024-03-08T05:11:46;27.40;;;15.18;;
49237;SDS011;35069;47.906;1.892;2024-03-08T05:14:12;31.25;;;16.23;;
49237;SDS011;35069;47.906;1.892;2024-03-08T05:16:42;24.05;;;13.00;;
49237;SDS011;35069;47.906;1.892;2024-03-08T05:19:08;26.42;;;14.48;;
49237;SDS011;35069;47.906;1.892;2024-03-08T05:21:34;29.55;;;15.15;;
49237;SDS011;35069;47.906;1.892;2024-03-08T05:23:59;28.00;;;14.57;;
49237;SDS011;35069;47.906;1.892;2024-03-08T05:26:25;32.97;;;15.70;;
49237;SDS011;35069;47.906;1.892;2024-03-08T05:28:50;27.20;;;14.55;;
49237;SDS011;35069;47.906;1.892;2024-03-08T05:31:19;29.15;;;15.60;;
49237;SDS011;35069;47.906;1.892;2024-03-08T05:33:47;24.80;;;14.25;;
49237;SDS011;35069;47.906;1.892;2024-03-08T05:36:13;25.27;;;14.48;;
49237;SDS011;35069;47.906;1.892;2024-03-08T05:38:41;27.55;;;14.57;;
49237;SDS011;35069;47.906;1.892;2024-03-08T05:41:08;25.92;;;14.05;;
49237;SDS011;35069;47.906;1.892;2024-03-08T05:43:34;24.73;;;14.27;;
49237;SDS011;35069;47.906;1.892;2024-03-08T05:46:00;31.00;;;16.38;;
49237;SDS011;35069;47.906;1.892;2024-03-08T05:48:25;28.52;;;14.95;;
49237;SDS011;35069;47.906;1.892;2024-03-08T05:50:51;27.25;;;14.93;;
49237;SDS011;35069;47.906;1.892;2024-03-08T05:53:16;26.92;;;14.43;;
49237;SDS011;35069;47.906;1.892;2024-03-08T05:55:42;24.98;;;14.52;;
49237;SDS011;35069;47.906;1.892;2024-03-08T05:58:08;26.15;;;14.77;;
49237;SDS011;35069;47.906;1.892;2024-03-08T06:00:36;27.02;;;14.55;;
49237;SDS011;35069;47.906;1.892;2024-03-08T06:03:02;27.02;;;14.70;;
49237;SDS011;35069;47.906;1.892;2024-03-08T06:05:28;25.13;;;14.90;;
49237;SDS011;35069;47.906;1.892;2024-03-08T06:07:53;26.95;;;14.85;;
49237;SDS011;35069;47.906;1.892;2024-03-08T06:10:19;26.48;;;14.15;;
49237;SDS011;35069;47.906;1.892;2024-03-08T06:12:44;27.52;;;13.88;;
49237;SDS011;35069;47.906;1.892;2024-03-08T06:15:10;29.05;;;14.27;;
49237;SDS011;35069;47.906;1.892;2024-03-08T06:17:39;31.23;;;14.98;;
49237;SDS011;35069;47.906;1.892;2024-03-08T06:20:06;25.88;;;12.98;;
49237;SDS011;35069;47.906;1.892;2024-03-08T06:22:38;25.08;;;14.90;;
49237;SDS011;35069;47.906;1.892;2024-03-08T06:25:06;23.27;;;14.02;;
49237;SDS011;35069;47.906;1.892;2024-03-08T06:27:38;27.00;;;14.90;;
49237;SDS011;35069;47.906;1.892;2024-03-08T06:30:08;25.95;;;14.68;;
49237;SDS011;35069;47.906;1.892;2024-03-08T06:32:34;26.77;;;13.55;;
49237;SDS011;35069;47.906;1.892;2024-03-08T06:35:01;24.80;;;14.80;;
49237;SDS011;35069;47.906;1.892;2024-03-08T06:37:31;25.77;;;14.15;;
49237;SDS011;35069;47.906;1.892;2024-03-08T06:39:57;28.45;;;13.80;;
49237;SDS011;35069;47.906;1.892;2024-03-08T06:42:23;23.10;;;13.52;;
49237;SDS011;35069;47.906;1.892;2024-03-08T06:44:48;30.38;;;14.02;;
49237;SDS011;35069;47.906;1.892;2024-03-08T06:47:17;26.45;;;14.23;;
49237;SDS011;35069;47.906;1.892;2024-03-08T06:49:43;24.13;;;13.30;;
49237;SDS011;35069;47.906;1.892;2024-03-08T06:52:09;22.02;;;13.00;;
49237;SDS011;35069;47.906;1.892;2024-03-08T06:54:36;25.23;;;13.00;;
49237;SDS011;35069;47.906;1.892;2024-03-08T06:57:05;22.20;;;13.18;;
49237;SDS011;35069;47.906;1.892;2024-03-08T06:59:31;22.13;;;12.80;;
49237;SDS011;35069;47.906;1.892;2024-03-08T07:01:57;22.25;;;13.45;;
49237;SDS011;35069;47.906;1.892;2024-03-08T07:04:24;21.52;;;13.05;;
49237;SDS011;35069;47.906;1.892;2024-03-08T07:06:54;22.92;;;11.70;;
49237;SDS011;35069;47.906;1.892;2024-03-08T07:09:19;20.73;;;12.45;;
49237;SDS011;35069;47.906;1.892;2024-03-08T07:11:45;25.40;;;12.10;;
49237;SDS011;35069;47.906;1.892;2024-03-08T07:14:11;21.98;;;12.48;;
49237;SDS011;35069;47.906;1.892;2024-03-08T07:16:40;18.13;;;11.95;;
49237;SDS011;35069;47.906;1.892;2024-03-08T07:19:06;18.67;;;10.75;;
49237;SDS011;35069;47.906;1.892;2024-03-08T07:21:32;21.70;;;12.70;;
49237;SDS011;35069;47.906;1.892;2024-03-08T07:23:57;22.40;;;12.40;;
49237;SDS011;35069;47.906;1.892;2024-03-08T07:26:26;21.17;;;11.30;;
49237;SDS011;35069;47.906;1.892;2024-03-08T07:28:52;20.55;;;11.88;;
49237;SDS011;35069;47.906;1.892;2024-03-08T07:31:19;20.65;;;11.85;;
49237;SDS011;35069;47.906;1.892;2024-03-08T07:34:00;24.42;;;13.15;;
49237;SDS011;35069;47.906;1.892;2024-03-08T07:36:25;21.67;;;11.95;;
49237;SDS011;35069;47.906;1.892;2024-03-08T07:38:51;16.58;;;10.80;;
49237;SDS011;35069;47.906;1.892;2024-03-08T07:41:17;20.02;;;12.02;;
49237;SDS011;35069;47.906;1.892;2024-03-08T07:43:42;15.52;;;9.80;;
49237;SDS011;35069;47.906;1.892;2024-03-08T07:46:11;16.98;;;10.55;;
49237;SDS011;35069;47.906;1.892;2024-03-08T07:48:38;19.98;;;10.20;;
49237;SDS011;35069;47.906;1.892;2024-03-08T07:51:05;17.05;;;10.57;;
49237;SDS011;35069;47.906;1.892;2024-03-08T07:53:30;18.38;;;11.18;;
49237;SDS011;35069;47.906;1.892;2024-03-08T07:55:56;19.30;;;11.13;;
49237;SDS011;35069;47.906;1.892;2024-03-08T07:58:22;17.50;;;10.48;;
49237;SDS011;35069;47.906;1.892;2024-03-08T08:00:48;16.40;;;11.05;;
49237;SDS011;35069;47.906;1.892;2024-03-08T08:03:14;19.10;;;12.27;;
49237;SDS011;35069;47.906;1.892;2024-03-08T08:05:41;15.88;;;10.13;;
49237;SDS011;35069;47.906;1.892;2024-03-08T08:08:10;16.48;;;11.73;;
49237;SDS011;35069;47.906;1.892;2024-03-08T08:10:36;15.80;;;10.82;;
49237;SDS011;35069;47.906;1.892;2024-03-08T08:13:02;16.55;;;10.38;;
49237;SDS011;35069;47.906;1.892;2024-03-08T08:15:29;18.15;;;10.95;;
49237;SDS011;35069;47.906;1.892;2024-03-08T08:17:55;14.45;;;10.35;;
49237;SDS011;35069;47.906;1.892;2024-03-08T08:20:20;15.00;;;11.05;;
49237;SDS011;35069;47.906;1.892;2024-03-08T08:22:47;15.05;;;9.77;;
49237;SDS011;35069;47.906;1.892;2024-03-08T08:25:13;15.15;;;10.55;;
49237;SDS011;35069;47.906;1.892;2024-03-08T08:27:45;15.45;;;9.88;;
49237;SDS011;35069;47.906;1.892;2024-03-08T08:30:11;15.27;;;9.10;;
49237;SDS011;35069;47.906;1.892;2024-03-08T08:32:37;15.27;;;10.38;;
49237;SDS011;35069;47.906;1.892;2024-03-08T08:35:09;14.70;;;9.57;;
49237;SDS011;35069;47.906;1.892;2024-03-08T08:37:38;17.58;;;10.27;;
49237;SDS011;35069;47.906;1.892;2024-03-08T08:40:04;15.18;;;9.43;;
49237;SDS011;35069;47.906;1.892;2024-03-08T08:42:39;15.82;;;9.73;;
49237;SDS011;35069;47.906;1.892;2024-03-08T08:45:05;17.45;;;9.90;;
49237;SDS011;35069;47.906;1.892;2024-03-08T08:47:37;14.40;;;9.15;;
49237;SDS011;35069;47.906;1.892;2024-03-08T08:50:03;15.02;;;8.45;;
49237;SDS011;35069;47.906;1.892;2024-03-08T08:52:30;13.07;;;8.85;;
49237;SDS011;35069;47.906;1.892;2024-03-08T08:54:56;16.90;;;8.32;;
49237;SDS011;35069;47.906;1.892;2024-03-08T08:57:22;11.32;;;7.55;;
49237;SDS011;35069;47.906;1.892;2024-03-08T08:59:48;13.65;;;8.27;;
49237;SDS011;35069;47.906;1.892;2024-03-08T09:02:13;13.25;;;7.45;;
49237;SDS011;35069;47.906;1.892;2024-03-08T09:04:40;12.68;;;7.50;;
49237;SDS011;35069;47.906;1.892;2024-03-08T09:07:05;9.32;;;6.93;;
49237;SDS011;35069;47.906;1.892;2024-03-08T09:09:31;10.93;;;6.82;;
49237;SDS011;35069;47.906;1.892;2024-03-08T09:11:57;11.68;;;6.57;;
49237;SDS011;35069;47.906;1.892;2024-03-08T09:14:23;9.48;;;6.15;;
49237;SDS011;35069;47.906;1.892;2024-03-08T09:16:51;13.82;;;6.95;;
49237;SDS011;35069;47.906;1.892;2024-03-08T09:19:16;9.80;;;5.72;;
49237;SDS011;35069;47.906;1.892;2024-03-08T09:21:44;11.27;;;5.63;;
49237;SDS011;35069;47.906;1.892;2024-03-08T09:24:10;8.32;;;5.88;;
49237;SDS011;35069;47.906;1.892;2024-03-08T09:26:35;10.00;;;6.63;;
49237;SDS011;35069;47.906;1.892;2024-03-08T09:29:02;6.88;;;5.07;;
49237;SDS011;35069;47.906;1.892;2024-03-08T09:31:27;6.43;;;5.03;;
49237;SDS011;35069;47.906;1.892;2024-03-08T09:33:53;9.32;;;6.00;;
49237;SDS011;35069;47.906;1.892;2024-03-08T09:36:19;7.78;;;6.00;;
49237;SDS011;35069;47.906;1.892;2024-03-08T09:38:45;9.32;;;7.00;;
49237;SDS011;35069;47.906;1.892;2024-03-08T09:41:10;9.13;;;6.28;;
49237;SDS011;35069;47.906;1.892;2024-03-08T09:43:37;8.80;;;6.40;;
49237;SDS011;35069;47.906;1.892;2024-03-08T09:46:03;7.60;;;6.15;;
49237;SDS011;35069;47.906;1.892;2024-03-08T09:48:31;9.20;;;5.40;;
49237;SDS011;35069;47.906;1.892;2024-03-08T09:50:57;11.85;;;5.88;;
49237;SDS011;35069;47.906;1.892;2024-03-08T09:53:23;7.25;;;5.47;;
49237;SDS011;35069;47.906;1.892;2024-03-08T09:55:49;9.90;;;5.53;;
49237;SDS011;35069;47.906;1.892;2024-03-08T09:58:15;8.73;;;5.72;;
49237;SDS011;35069;47.906;1.892;2024-03-08T10:00:47;9.45;;;5.18;;
49237;SDS011;35069;47.906;1.892;2024-03-08T10:03:13;8.93;;;5.40;;
49237;SDS011;35069;47.906;1.892;2024-03-08T10:05:40;7.65;;;6.28;;
49237;SDS011;35069;47.906;1.892;2024-03-08T10:08:06;7.00;;;5.63;;
49237;SDS011;35069;47.906;1.892;2024-03-08T10:10:33;6.30;;;5.10;;
49237;SDS011;35069;47.906;1.892;2024-03-08T10:12:59;6.68;;;5.13;;
49237;SDS011;35069;47.906;1.892;2024-03-08T10:15:28;6.05;;;4.55;;
49237;SDS011;35069;47.906;1.892;2024-03-08T10:17:57;5.93;;;4.60;;
49237;SDS011;35069;47.906;1.892;2024-03-08T10:20:23;6.07;;;4.30;;
49237;SDS011;35069;47.906;1.892;2024-03-08T10:22:48;12.02;;;4.93;;
49237;SDS011;35069;47.906;1.892;2024-03-08T10:25:14;6.82;;;5.00;;
49237;SDS011;35069;47.906;1.892;2024-03-08T10:27:40;8.43;;;4.78;;
49237;SDS011;35069;47.906;1.892;2024-03-08T10:30:06;8.10;;;5.40;;
49237;SDS011;35069;47.906;1.892;2024-03-08T10:32:37;7.03;;;4.22;;
49237;SDS011;35069;47.906;1.892;2024-03-08T10:35:04;6.38;;;4.72;;
49237;SDS011;35069;47.906;1.892;2024-03-08T10:37:32;7.40;;;3.97;;
49237;SDS011;35069;47.906;1.892;2024-03-08T10:40:03;4.97;;;4.05;;
49237;SDS011;35069;47.906;1.892;2024-03-08T10:42:39;8.85;;;4.72;;
49237;SDS011;35069;47.906;1.892;2024-03-08T10:45:19;5.85;;;4.13;;
49237;SDS011;35069;47.906;1.892;2024-03-08T10:48:28;5.47;;;4.20;;
49237;SDS011;35069;47.906;1.892;2024-03-08T10:50:59;5.78;;;3.45;;
49237;SDS011;35069;47.906;1.892;2024-03-08T10:53:27;7.25;;;4.13;;
49237;SDS011;35069;47.906;1.892;2024-03-08T10:55:54;5.82;;;3.65;;
49237;SDS011;35069;47.906;1.892;2024-03-08T10:58:22;4.35;;;3.22;;
49237;SDS011;35069;47.906;1.892;2024-03-08T11:00:52;5.10;;;3.83;;
49237;SDS011;35069;47.906;1.892;2024-03-08T11:06:06;10.55;;;3.72;;
49237;SDS011;35069;47.906;1.892;2024-03-08T11:08:35;6.72;;;4.40;;
49237;SDS011;35069;47.906;1.892;2024-03-08T11:11:01;5.57;;;3.33;;
49237;SDS011;35069;47.906;1.892;2024-03-08T11:13:33;4.10;;;3.20;;
49237;SDS011;35069;47.906;1.892;2024-03-08T11:16:00;8.23;;;3.25;;
49237;SDS011;35069;47.906;1.892;2024-03-08T11:18:31;8.52;;;4.05;;
49237;SDS011;35069;47.906;1.892;2024-03-08T11:20:58;5.30;;;3.72;;
49237;SDS011;35069;47.906;1.892;2024-03-08T11:23:26;4.85;;;2.90;;
49237;SDS011;35069;47.906;1.892;2024-03-08T11:25:56;4.85;;;2.88;;
49237;SDS011;35069;47.906;1.892;2024-03-08T11:28:24;3.10;;;2.53;;
49237;SDS011;35069;47.906;1.892;2024-03-08T11:33:26;8.98;;;3.38;;
49237;SDS011;35069;47.906;1.892;2024-03-08T11:38:47;4.88;;;3.63;;
49237;SDS011;35069;47.906;1.892;2024-03-08T11:41:24;4.60;;;3.30;;
49237;SDS011;35069;47.906;1.892;2024-03-08T11:44:01;8.10;;;3.65;;
49237;SDS011;35069;47.906;1.892;2024-03-08T11:46:32;2.22;;;2.03;;
49237;SDS011;35069;47.906;1.892;2024-03-08T11:48:59;3.95;;;2.50;;
49237;SDS011;35069;47.906;1.892;2024-03-08T11:51:26;5.07;;;3.03;;
49237;SDS011;35069;47.906;1.892;2024-03-08T11:53:52;5.85;;;3.17;;
49237;SDS011;35069;47.906;1.892;2024-03-08T11:56:18;4.03;;;2.60;;
49237;SDS011;35069;47.906;1.892;2024-03-08T11:58:54;4.70;;;2.85;;
49237;SDS011;35069;47.906;1.892;2024-03-08T12:01:23;4.05;;;2.78;;
49237;SDS011;35069;47.906;1.892;2024-03-08T12:03:53;5.97;;;3.35;;
49237;SDS011;35069;47.906;1.892;2024-03-08T12:06:20;9.70;;;3.13;;
49237;SDS011;35069;47.906;1.892;2024-03-08T12:08:46;4.32;;;2.67;;
49237;SDS011;35069;47.906;1.892;2024-03-08T12:11:14;5.22;;;2.83;;
49237;SDS011;35069;47.906;1.892;2024-03-08T12:13:41;8.23;;;2.83;;
49237;SDS011;35069;47.906;1.892;2024-03-08T12:16:06;5.03;;;2.55;;
49237;SDS011;35069;47.906;1.892;2024-03-08T12:18:34;6.63;;;2.40;;
49237;SDS011;35069;47.906;1.892;2024-03-08T12:21:09;5.90;;;2.72;;
49237;SDS011;35069;47.906;1.892;2024-03-08T12:23:36;3.78;;;2.50;;
49237;SDS011;35069;47.906;1.892;2024-03-08T12:26:17;3.75;;;2.70;;
49237;SDS011;35069;47.906;1.892;2024-03-08T12:28:48;3.00;;;2.00;;
49237;SDS011;35069;47.906;1.892;2024-03-08T12:31:14;9.07;;;2.30;;
49237;SDS011;35069;47.906;1.892;2024-03-08T12:33:51;6.18;;;2.40;;
49237;SDS011;35069;47.906;1.892;2024-03-08T12:36:17;2.70;;;2.03;;
49237;SDS011;35069;47.906;1.892;2024-03-08T12:38:43;6.07;;;2.70;;
49237;SDS011;35069;47.906;1.892;2024-03-08T12:41:12;2.67;;;2.10;;
49237;SDS011;35069;47.906;1.892;2024-03-08T12:43:39;2.72;;;1.63;;
49237;SDS011;35069;47.906;1.892;2024-03-08T12:46:04;2.67;;;1.50;;
49237;SDS011;35069;47.906;1.892;2024-03-08T12:48:34;3.22;;;1.73;;
49237;SDS011;35069;47.906;1.892;2024-03-08T12:51:00;4.47;;;1.70;;
49237;SDS011;35069;47.906;1.892;2024-03-08T12:53:26;2.80;;;1.30;;
49237;SDS011;35069;47.906;1.892;2024-03-08T12:55:54;4.10;;;1.40;;
49237;SDS011;35069;47.906;1.892;2024-03-08T12:58:21;2.92;;;1.27;;
49237;SDS011;35069;47.906;1.892;2024-03-08T13:00:47;4.32;;;1.52;;
49237;SDS011;35069;47.906;1.892;2024-03-08T13:03:13;2.33;;;1.23;;
49237;SDS011;35069;47.906;1.892;2024-03-08T13:05:39;2.58;;;1.38;;
49237;SDS011;35069;47.906;1.892;2024-03-08T13:08:05;3.78;;;1.23;;
49237;SDS011;35069;47.906;1.892;2024-03-08T13:13:03;3.35;;;1.60;;
49237;SDS011;35069;47.906;1.892;2024-03-08T13:15:29;6.18;;;1.73;;
49237;SDS011;35069;47.906;1.892;2024-03-08T13:17:55;2.75;;;1.67;;
49237;SDS011;35069;47.906;1.892;2024-03-08T13:20:25;1.65;;;1.17;;
49237;SDS011;35069;47.906;1.892;2024-03-08T13:22:53;3.00;;;1.70;;
49237;SDS011;35069;47.906;1.892;2024-03-08T13:25:20;4.35;;;2.53;;
49237;SDS011;35069;47.906;1.892;2024-03-08T13:27:46;3.85;;;1.60;;
49237;SDS011;35069;47.906;1.892;2024-03-08T13:30:12;6.63;;;1.50;;
49237;SDS011;35069;47.906;1.892;2024-03-08T13:32:40;4.43;;;1.58;;
49237;SDS011;35069;47.906;1.892;2024-03-08T13:35:08;7.82;;;1.60;;
49237;SDS011;35069;47.906;1.892;2024-03-08T13:37:38;3.40;;;1.65;;
49237;SDS011;35069;47.906;1.892;2024-03-08T13:40:05;3.35;;;0.98;;
49237;SDS011;35069;47.906;1.892;2024-03-08T13:42:31;2.70;;;1.60;;
49237;SDS011;35069;47.906;1.892;2024-03-08T13:44:56;5.13;;;1.10;;
49237;SDS011;35069;47.906;1.892;2024-03-08T13:47:22;2.80;;;1.08;;
49237;SDS011;35069;47.906;1.892;2024-03-08T13:49:49;2.67;;;1.23;;
49237;SDS011;35069;47.906;1.892;2024-03-08T13:52:15;4.68;;;1.67;;
49237;SDS011;35069;47.906;1.892;2024-03-08T13:54:41;7.10;;;1.00;;
49237;SDS011;35069;47.906;1.892;2024-03-08T13:57:07;5.78;;;1.48;;
49237;SDS011;35069;47.906;1.892;2024-03-08T13:59:33;3.65;;;1.42;;
49237;SDS011;35069;47.906;1.892;2024-03-08T14:02:00;2.78;;;1.10;;
49237;SDS011;35069;47.906;1.892;2024-03-08T14:04:27;2.63;;;1.20;;
49237;SDS011;35069;47.906;1.892;2024-03-08T14:06:53;2.35;;;1.27;;
49237;SDS011;35069;47.906;1.892;2024-03-08T14:09:28;7.78;;;1.75;;
49237;SDS011;35069;47.906;1.892;2024-03-08T14:11:57;1.90;;;1.08;;
49237;SDS011;35069;47.906;1.892;2024-03-08T14:14:23;2.38;;;1.00;;
49237;SDS011;35069;47.906;1.892;2024-03-08T14:16:49;3.78;;;1.27;;
49237;SDS011;35069;47.906;1.892;2024-03-08T14:19:18;4.05;;;2.22;;
49237;SDS011;35069;47.906;1.892;2024-03-08T14:21:44;5.57;;;2.13;;
49237;SDS011;35069;47.906;1.892;2024-03-08T14:24:10;3.80;;;0.95;;
49237;SDS011;35069;47.906;1.892;2024-03-08T14:26:35;3.75;;;0.85;;
49237;SDS011;35069;47.906;1.892;2024-03-08T14:29:09;7.18;;;1.40;;
49237;SDS011;35069;47.906;1.892;2024-03-08T14:31:36;2.20;;;1.35;;
49237;SDS011;35069;47.906;1.892;2024-03-08T14:34:02;6.18;;;1.65;;
49237;SDS011;35069;47.906;1.892;2024-03-08T14:36:28;3.80;;;1.27;;
49237;SDS011;35069;47.906;1.892;2024-03-08T14:38:54;2.63;;;1.52;;
49237;SDS011;35069;47.906;1.892;2024-03-08T14:41:20;3.05;;;1.20;;